sensor_id;sensor_type;location;lat;lon;timestamp;P1;durP1;ratioP1;P2;durP2;ratioP2
19030;SDS011;9648;51.130;13.978;2023-09-19T00:00:17;11.80;;;7.07;;
19030;SDS011;9648;51.130;13.978;2023-09-19T00:02:45;11.63;;;7.13;;
19030;SDS011;9648;51.130;13.978;2023-09-19T00:05:13;10.60;;;6.63;;
19030;SDS011;9648;51.130;13.978;2023-09-19T00:07:40;10.80;;;6.57;;
19030;SDS011;9648;51.130;13.978;2023-09-19T00:10:07;10.32;;;6.68;;
19030;SDS011;9648;51.130;13.978;2023-09-19T00:12:35;8.93;;;6.35;;
19030;SDS011;9648;51.130;13.978;2023-09-19T00:15:02;9.40;;;6.03;;
19030;SDS011;9648;51.130;13.978;2023-09-19T00:17:33;7.60;;;5.73;;
19030;SDS011;9648;51.130;13.978;2023-09-19T00:19:59;9.60;;;6.30;;
19030;SDS011;9648;51.130;13.978;2023-09-19T00:22:39;9.37;;;6.40;;
19030;SDS011;9648;51.130;13.978;2023-09-19T00:25:06;10.52;;;6.78;;
19030;SDS011;9648;51.130;13.978;2023-09-19T00:27:34;10.07;;;7.10;;
19030;SDS011;9648;51.130;13.978;2023-09-19T00:30:04;12.50;;;7.30;;
19030;SDS011;9648;51.130;13.978;2023-09-19T00:32:35;10.32;;;7.43;;
19030;SDS011;9648;51.130;13.978;2023-09-19T00:35:02;12.05;;;7.45;;
19030;SDS011;9648;51.130;13.978;2023-09-19T00:37:30;10.32;;;6.75;;
19030;SDS011;9648;51.130;13.978;2023-09-19T00:39:57;10.88;;;7.25;;
19030;SDS011;9648;51.130;13.978;2023-09-19T00:42:24;9.60;;;6.75;;
19030;SDS011;9648;51.130;13.978;2023-09-19T00:44:51;9.95;;;6.88;;
19030;SDS011;9648;51.130;13.978;2023-09-19T00:47:18;10.98;;;7.22;;
19030;SDS011;9648;51.130;13.978;2023-09-19T00:49:46;9.73;;;6.63;;
19030;SDS011;9648;51.130;13.978;2023-09-19T00:52:15;9.90;;;6.63;;
19030;SDS011;9648;51.130;13.978;2023-09-19T00:54:45;12.02;;;6.72;;
19030;SDS011;9648;51.130;13.978;2023-09-19T00:57:12;9.95;;;7.10;;
19030;SDS011;9648;51.130;13.978;2023-09-19T00:59:40;8.80;;;6.38;;
19030;SDS011;9648;51.130;13.978;2023-09-19T01:02:07;10.70;;;7.10;;
19030;SDS011;9648;51.130;13.978;2023-09-19T01:04:34;10.15;;;7.15;;
19030;SDS011;9648;51.130;13.978;2023-09-19T01:07:02;11.45;;;7.57;;
19030;SDS011;9648;51.130;13.978;2023-09-19T01:09:30;11.80;;;7.00;;
19030;SDS011;9648;51.130;13.978;2023-09-19T01:11:58;11.73;;;6.50;;
19030;SDS011;9648;51.130;13.978;2023-09-19T01:14:29;10.15;;;6.53;;
19030;SDS011;9648;51.130;13.978;2023-09-19T01:17:05;10.05;;;6.75;;
19030;SDS011;9648;51.130;13.978;2023-09-19T01:19:52;9.68;;;6.80;;
19030;SDS011;9648;51.130;13.978;2023-09-19T01:22:45;10.88;;;6.50;;
19030;SDS011;9648;51.130;13.978;2023-09-19T01:31:11;10.63;;;6.72;;
19030;SDS011;9648;51.130;13.978;2023-09-19T01:33:54;10.55;;;6.90;;
19030;SDS011;9648;51.130;13.978;2023-09-19T01:36:26;11.48;;;7.13;;
19030;SDS011;9648;51.130;13.978;2023-09-19T01:38:54;15.52;;;8.23;;
19030;SDS011;9648;51.130;13.978;2023-09-19T01:41:26;12.82;;;7.68;;
19030;SDS011;9648;51.130;13.978;2023-09-19T01:43:57;12.82;;;8.10;;
19030;SDS011;9648;51.130;13.978;2023-09-19T01:46:33;12.55;;;8.30;;
19030;SDS011;9648;51.130;13.978;2023-09-19T01:49:04;12.23;;;8.27;;
19030;SDS011;9648;51.130;13.978;2023-09-19T01:51:42;12.32;;;8.07;;
19030;SDS011;9648;51.130;13.978;2023-09-19T01:54:12;11.05;;;7.88;;
19030;SDS011;9648;51.130;13.978;2023-09-19T01:56:48;11.07;;;7.90;;
19030;SDS011;9648;51.130;13.978;2023-09-19T01:59:24;12.93;;;7.20;;
19030;SDS011;9648;51.130;13.978;2023-09-19T02:01:57;12.30;;;7.38;;
19030;SDS011;9648;51.130;13.978;2023-09-19T02:04:25;11.80;;;7.00;;
19030;SDS011;9648;51.130;13.978;2023-09-19T02:06:53;12.05;;;7.53;;
19030;SDS011;9648;51.130;13.978;2023-09-19T02:09:20;12.07;;;6.75;;
19030;SDS011;9648;51.130;13.978;2023-09-19T02:11:47;11.85;;;6.47;;
19030;SDS011;9648;51.130;13.978;2023-09-19T02:14:14;11.65;;;6.38;;
19030;SDS011;9648;51.130;13.978;2023-09-19T02:16:41;9.15;;;5.88;;
19030;SDS011;9648;51.130;13.978;2023-09-19T02:19:09;8.88;;;5.75;;
19030;SDS011;9648;51.130;13.978;2023-09-19T02:21:36;7.70;;;5.32;;
19030;SDS011;9648;51.130;13.978;2023-09-19T02:24:05;8.27;;;5.30;;
19030;SDS011;9648;51.130;13.978;2023-09-19T02:26:35;11.20;;;6.40;;
19030;SDS011;9648;51.130;13.978;2023-09-19T02:29:01;9.10;;;5.57;;
19030;SDS011;9648;51.130;13.978;2023-09-19T02:31:29;8.13;;;5.35;;
19030;SDS011;9648;51.130;13.978;2023-09-19T02:33:56;8.33;;;5.23;;
19030;SDS011;9648;51.130;13.978;2023-09-19T02:36:26;6.93;;;4.90;;
19030;SDS011;9648;51.130;13.978;2023-09-19T02:38:53;8.90;;;5.03;;
19030;SDS011;9648;51.130;13.978;2023-09-19T02:41:19;10.10;;;4.90;;
19030;SDS011;9648;51.130;13.978;2023-09-19T02:43:46;8.67;;;4.87;;
19030;SDS011;9648;51.130;13.978;2023-09-19T02:46:13;7.50;;;4.80;;
19030;SDS011;9648;51.130;13.978;2023-09-19T02:48:42;8.13;;;4.63;;
19030;SDS011;9648;51.130;13.978;2023-09-19T02:51:09;8.65;;;4.57;;
19030;SDS011;9648;51.130;13.978;2023-09-19T02:53:37;5.40;;;4.15;;
19030;SDS011;9648;51.130;13.978;2023-09-19T02:56:04;7.80;;;4.53;;
19030;SDS011;9648;51.130;13.978;2023-09-19T02:58:30;11.23;;;4.82;;
19030;SDS011;9648;51.130;13.978;2023-09-19T03:01:07;9.73;;;5.13;;
19030;SDS011;9648;51.130;13.978;2023-09-19T03:03:34;8.60;;;5.10;;
19030;SDS011;9648;51.130;13.978;2023-09-19T03:06:02;9.45;;;5.25;;
19030;SDS011;9648;51.130;13.978;2023-09-19T03:08:29;6.32;;;4.10;;
19030;SDS011;9648;51.130;13.978;2023-09-19T03:10:57;5.33;;;3.37;;
19030;SDS011;9648;51.130;13.978;2023-09-19T03:13:25;6.47;;;3.50;;
19030;SDS011;9648;51.130;13.978;2023-09-19T03:15:54;6.65;;;3.70;;
19030;SDS011;9648;51.130;13.978;2023-09-19T03:18:23;7.88;;;3.70;;
19030;SDS011;9648;51.130;13.978;2023-09-19T03:20:54;5.10;;;3.30;;
19030;SDS011;9648;51.130;13.978;2023-09-19T03:23:22;7.18;;;3.80;;
19030;SDS011;9648;51.130;13.978;2023-09-19T03:25:49;7.68;;;3.30;;
19030;SDS011;9648;51.130;13.978;2023-09-19T03:28:18;5.97;;;3.30;;
19030;SDS011;9648;51.130;13.978;2023-09-19T03:30:46;5.70;;;3.33;;
19030;SDS011;9648;51.130;13.978;2023-09-19T03:33:24;5.03;;;3.10;;
19030;SDS011;9648;51.130;13.978;2023-09-19T03:35:51;5.53;;;3.20;;
19030;SDS011;9648;51.130;13.978;2023-09-19T03:38:18;6.30;;;2.90;;
19030;SDS011;9648;51.130;13.978;2023-09-19T03:40:46;4.47;;;2.58;;
19030;SDS011;9648;51.130;13.978;2023-09-19T03:43:13;4.78;;;2.40;;
19030;SDS011;9648;51.130;13.978;2023-09-19T03:45:41;4.03;;;2.30;;
19030;SDS011;9648;51.130;13.978;2023-09-19T03:48:08;4.10;;;2.10;;
19030;SDS011;9648;51.130;13.978;2023-09-19T03:50:35;3.10;;;2.00;;
19030;SDS011;9648;51.130;13.978;2023-09-19T03:53:02;4.35;;;2.20;;
19030;SDS011;9648;51.130;13.978;2023-09-19T03:55:30;3.78;;;2.10;;
19030;SDS011;9648;51.130;13.978;2023-09-19T03:57:57;2.90;;;1.95;;
19030;SDS011;9648;51.130;13.978;2023-09-19T04:00:23;4.05;;;2.15;;
19030;SDS011;9648;51.130;13.978;2023-09-19T04:02:52;3.30;;;1.80;;
19030;SDS011;9648;51.130;13.978;2023-09-19T04:05:21;3.85;;;1.80;;
19030;SDS011;9648;51.130;13.978;2023-09-19T04:07:49;4.10;;;1.98;;
19030;SDS011;9648;51.130;13.978;2023-09-19T04:10:16;3.10;;;1.80;;
19030;SDS011;9648;51.130;13.978;2023-09-19T04:12:50;3.60;;;1.80;;
19030;SDS011;9648;51.130;13.978;2023-09-19T04:15:18;3.17;;;1.90;;
19030;SDS011;9648;51.130;13.978;2023-09-19T04:17:48;4.57;;;1.90;;
19030;SDS011;9648;51.130;13.978;2023-09-19T04:20:16;2.58;;;1.80;;
19030;SDS011;9648;51.130;13.978;2023-09-19T04:22:44;4.70;;;2.00;;
19030;SDS011;9648;51.130;13.978;2023-09-19T04:25:11;3.33;;;1.80;;
19030;SDS011;9648;51.130;13.978;2023-09-19T04:27:38;3.75;;;1.60;;
19030;SDS011;9648;51.130;13.978;2023-09-19T04:30:05;2.70;;;1.70;;
19030;SDS011;9648;51.130;13.978;2023-09-19T04:32:36;2.75;;;1.80;;
19030;SDS011;9648;51.130;13.978;2023-09-19T04:35:05;4.57;;;1.95;;
19030;SDS011;9648;51.130;13.978;2023-09-19T04:37:36;2.95;;;1.80;;
19030;SDS011;9648;51.130;13.978;2023-09-19T04:40:05;2.80;;;2.00;;
19030;SDS011;9648;51.130;13.978;2023-09-19T04:42:37;3.05;;;1.75;;
19030;SDS011;9648;51.130;13.978;2023-09-19T04:45:05;3.70;;;1.95;;
19030;SDS011;9648;51.130;13.978;2023-09-19T04:47:33;2.83;;;1.90;;
19030;SDS011;9648;51.130;13.978;2023-09-19T04:50:00;2.60;;;1.77;;
19030;SDS011;9648;51.130;13.978;2023-09-19T04:52:30;2.78;;;1.80;;
19030;SDS011;9648;51.130;13.978;2023-09-19T04:54:58;3.80;;;1.88;;
19030;SDS011;9648;51.130;13.978;2023-09-19T04:57:25;3.38;;;1.80;;
19030;SDS011;9648;51.130;13.978;2023-09-19T04:59:53;3.10;;;1.70;;
19030;SDS011;9648;51.130;13.978;2023-09-19T05:02:20;3.65;;;2.00;;
19030;SDS011;9648;51.130;13.978;2023-09-19T05:04:47;3.42;;;1.83;;
19030;SDS011;9648;51.130;13.978;2023-09-19T05:07:13;4.75;;;1.75;;
19030;SDS011;9648;51.130;13.978;2023-09-19T05:09:40;4.57;;;1.92;;
19030;SDS011;9648;51.130;13.978;2023-09-19T05:12:09;3.30;;;1.90;;
19030;SDS011;9648;51.130;13.978;2023-09-19T05:14:36;3.67;;;1.80;;
19030;SDS011;9648;51.130;13.978;2023-09-19T05:17:02;3.53;;;1.55;;
19030;SDS011;9648;51.130;13.978;2023-09-19T05:19:29;4.18;;;1.90;;
19030;SDS011;9648;51.130;13.978;2023-09-19T05:21:56;3.42;;;1.90;;
19030;SDS011;9648;51.130;13.978;2023-09-19T05:24:23;3.78;;;1.95;;
19030;SDS011;9648;51.130;13.978;2023-09-19T05:26:51;3.30;;;1.60;;
19030;SDS011;9648;51.130;13.978;2023-09-19T05:29:21;3.67;;;1.90;;
19030;SDS011;9648;51.130;13.978;2023-09-19T05:31:48;4.20;;;1.85;;
19030;SDS011;9648;51.130;13.978;2023-09-19T05:34:16;3.75;;;1.77;;
19030;SDS011;9648;51.130;13.978;2023-09-19T05:36:42;5.30;;;1.77;;
19030;SDS011;9648;51.130;13.978;2023-09-19T05:39:09;2.53;;;1.80;;
19030;SDS011;9648;51.130;13.978;2023-09-19T05:41:37;3.63;;;1.70;;
19030;SDS011;9648;51.130;13.978;2023-09-19T05:44:05;3.60;;;1.80;;
19030;SDS011;9648;51.130;13.978;2023-09-19T05:46:33;2.90;;;1.70;;
19030;SDS011;9648;51.130;13.978;2023-09-19T05:49:00;2.83;;;1.55;;
19030;SDS011;9648;51.130;13.978;2023-09-19T05:51:29;3.25;;;1.80;;
19030;SDS011;9648;51.130;13.978;2023-09-19T05:53:56;3.72;;;1.80;;
19030;SDS011;9648;51.130;13.978;2023-09-19T05:56:23;2.15;;;1.80;;
19030;SDS011;9648;51.130;13.978;2023-09-19T05:58:50;2.25;;;1.70;;
19030;SDS011;9648;51.130;13.978;2023-09-19T06:01:17;4.18;;;1.70;;
19030;SDS011;9648;51.130;13.978;2023-09-19T06:03:45;3.85;;;1.80;;
19030;SDS011;9648;51.130;13.978;2023-09-19T06:06:12;3.08;;;1.77;;
19030;SDS011;9648;51.130;13.978;2023-09-19T06:08:39;4.20;;;1.90;;
19030;SDS011;9648;51.130;13.978;2023-09-19T06:11:06;2.40;;;1.55;;
19030;SDS011;9648;51.130;13.978;2023-09-19T06:13:34;2.78;;;1.67;;
19030;SDS011;9648;51.130;13.978;2023-09-19T06:16:01;3.38;;;1.60;;
19030;SDS011;9648;51.130;13.978;2023-09-19T06:18:30;2.83;;;1.77;;
19030;SDS011;9648;51.130;13.978;2023-09-19T06:21:00;4.78;;;1.90;;
19030;SDS011;9648;51.130;13.978;2023-09-19T06:23:32;4.93;;;1.80;;
19030;SDS011;9648;51.130;13.978;2023-09-19T06:26:00;2.50;;;1.73;;
19030;SDS011;9648;51.130;13.978;2023-09-19T06:28:27;3.60;;;1.70;;
19030;SDS011;9648;51.130;13.978;2023-09-19T06:30:54;3.80;;;1.65;;
19030;SDS011;9648;51.130;13.978;2023-09-19T06:33:20;3.08;;;1.60;;
19030;SDS011;9648;51.130;13.978;2023-09-19T06:35:47;3.00;;;1.63;;
19030;SDS011;9648;51.130;13.978;2023-09-19T06:38:20;2.90;;;1.65;;
19030;SDS011;9648;51.130;13.978;2023-09-19T06:40:46;2.17;;;1.60;;
19030;SDS011;9648;51.130;13.978;2023-09-19T06:43:13;4.67;;;1.80;;
19030;SDS011;9648;51.130;13.978;2023-09-19T06:45:40;3.60;;;1.80;;
19030;SDS011;9648;51.130;13.978;2023-09-19T06:48:07;3.70;;;1.90;;
19030;SDS011;9648;51.130;13.978;2023-09-19T06:50:35;4.50;;;1.80;;
19030;SDS011;9648;51.130;13.978;2023-09-19T06:53:02;2.90;;;1.70;;
19030;SDS011;9648;51.130;13.978;2023-09-19T06:55:30;2.17;;;1.55;;
19030;SDS011;9648;51.130;13.978;2023-09-19T06:57:57;3.10;;;1.50;;
19030;SDS011;9648;51.130;13.978;2023-09-19T07:00:24;2.15;;;1.40;;
19030;SDS011;9648;51.130;13.978;2023-09-19T07:02:55;2.20;;;1.42;;
19030;SDS011;9648;51.130;13.978;2023-09-19T07:05:23;3.13;;;1.47;;
19030;SDS011;9648;51.130;13.978;2023-09-19T07:07:50;3.25;;;1.55;;
19030;SDS011;9648;51.130;13.978;2023-09-19T07:10:17;2.57;;;1.40;;
19030;SDS011;9648;51.130;13.978;2023-09-19T07:12:46;3.25;;;1.30;;
19030;SDS011;9648;51.130;13.978;2023-09-19T07:15:13;2.38;;;1.27;;
19030;SDS011;9648;51.130;13.978;2023-09-19T07:17:40;3.20;;;1.43;;
19030;SDS011;9648;51.130;13.978;2023-09-19T07:20:07;3.20;;;1.33;;
19030;SDS011;9648;51.130;13.978;2023-09-19T07:22:35;3.72;;;1.60;;
19030;SDS011;9648;51.130;13.978;2023-09-19T07:25:04;2.35;;;1.42;;
19030;SDS011;9648;51.130;13.978;2023-09-19T07:27:31;2.60;;;1.10;;
19030;SDS011;9648;51.130;13.978;2023-09-19T07:30:00;3.15;;;1.30;;
19030;SDS011;9648;51.130;13.978;2023-09-19T07:32:27;4.93;;;1.38;;
19030;SDS011;9648;51.130;13.978;2023-09-19T07:34:53;2.20;;;1.10;;
19030;SDS011;9648;51.130;13.978;2023-09-19T07:37:20;3.13;;;1.30;;
19030;SDS011;9648;51.130;13.978;2023-09-19T07:39:47;2.42;;;1.20;;
19030;SDS011;9648;51.130;13.978;2023-09-19T07:42:14;3.45;;;1.20;;
19030;SDS011;9648;51.130;13.978;2023-09-19T07:44:43;2.00;;;1.23;;
19030;SDS011;9648;51.130;13.978;2023-09-19T07:47:14;2.65;;;1.27;;
19030;SDS011;9648;51.130;13.978;2023-09-19T07:49:41;2.55;;;1.10;;
19030;SDS011;9648;51.130;13.978;2023-09-19T07:52:08;7.50;;;1.20;;
19030;SDS011;9648;51.130;13.978;2023-09-19T07:54:35;3.42;;;1.15;;
19030;SDS011;9648;51.130;13.978;2023-09-19T07:57:04;3.27;;;1.10;;
19030;SDS011;9648;51.130;13.978;2023-09-19T07:59:30;2.78;;;1.20;;
19030;SDS011;9648;51.130;13.978;2023-09-19T08:01:58;1.75;;;1.00;;
19030;SDS011;9648;51.130;13.978;2023-09-19T08:04:27;1.98;;;1.00;;
19030;SDS011;9648;51.130;13.978;2023-09-19T08:06:55;1.83;;;1.05;;
19030;SDS011;9648;51.130;13.978;2023-09-19T08:09:23;2.45;;;0.90;;
19030;SDS011;9648;51.130;13.978;2023-09-19T08:11:50;2.42;;;0.90;;
19030;SDS011;9648;51.130;13.978;2023-09-19T08:14:17;2.08;;;0.90;;
19030;SDS011;9648;51.130;13.978;2023-09-19T08:16:44;3.30;;;0.93;;
19030;SDS011;9648;51.130;13.978;2023-09-19T08:19:10;2.78;;;1.10;;
19030;SDS011;9648;51.130;13.978;2023-09-19T08:21:39;2.45;;;0.93;;
19030;SDS011;9648;51.130;13.978;2023-09-19T08:24:05;2.75;;;0.90;;
19030;SDS011;9648;51.130;13.978;2023-09-19T08:26:34;1.60;;;0.80;;
19030;SDS011;9648;51.130;13.978;2023-09-19T08:29:02;2.47;;;0.90;;
19030;SDS011;9648;51.130;13.978;2023-09-19T08:31:33;2.30;;;0.90;;
19030;SDS011;9648;51.130;13.978;2023-09-19T08:34:00;2.58;;;0.80;;
19030;SDS011;9648;51.130;13.978;2023-09-19T08:36:26;1.83;;;1.00;;
19030;SDS011;9648;51.130;13.978;2023-09-19T08:38:55;2.03;;;1.00;;
19030;SDS011;9648;51.130;13.978;2023-09-19T08:41:21;1.63;;;0.85;;
19030;SDS011;9648;51.130;13.978;2023-09-19T08:43:48;2.88;;;0.77;;
19030;SDS011;9648;51.130;13.978;2023-09-19T08:46:16;2.10;;;0.90;;
19030;SDS011;9648;51.130;13.978;2023-09-19T08:48:45;2.38;;;1.00;;
19030;SDS011;9648;51.130;13.978;2023-09-19T08:51:17;2.20;;;0.70;;
19030;SDS011;9648;51.130;13.978;2023-09-19T08:53:54;2.42;;;0.90;;
19030;SDS011;9648;51.130;13.978;2023-09-19T08:56:29;2.10;;;0.80;;
19030;SDS011;9648;51.130;13.978;2023-09-19T08:58:59;1.67;;;0.80;;
19030;SDS011;9648;51.130;13.978;2023-09-19T09:01:28;2.47;;;0.80;;
19030;SDS011;9648;51.130;13.978;2023-09-19T09:03:57;2.95;;;0.98;;
19030;SDS011;9648;51.130;13.978;2023-09-19T09:06:25;1.90;;;0.88;;
19030;SDS011;9648;51.130;13.978;2023-09-19T09:08:54;2.03;;;1.00;;
19030;SDS011;9648;51.130;13.978;2023-09-19T09:11:21;2.90;;;1.00;;
19030;SDS011;9648;51.130;13.978;2023-09-19T09:13:49;3.70;;;0.90;;
19030;SDS011;9648;51.130;13.978;2023-09-19T09:16:17;2.20;;;1.02;;
19030;SDS011;9648;51.130;13.978;2023-09-19T09:18:43;1.90;;;0.98;;
19030;SDS011;9648;51.130;13.978;2023-09-19T09:21:10;1.60;;;0.90;;
19030;SDS011;9648;51.130;13.978;2023-09-19T09:23:40;2.42;;;0.80;;
19030;SDS011;9648;51.130;13.978;2023-09-19T09:26:08;2.67;;;1.00;;
19030;SDS011;9648;51.130;13.978;2023-09-19T09:28:35;4.03;;;0.70;;
19030;SDS011;9648;51.130;13.978;2023-09-19T09:31:12;1.70;;;0.70;;
19030;SDS011;9648;51.130;13.978;2023-09-19T09:33:52;2.35;;;0.90;;
19030;SDS011;9648;51.130;13.978;2023-09-19T09:36:31;1.37;;;0.80;;
19030;SDS011;9648;51.130;13.978;2023-09-19T09:39:01;2.20;;;0.85;;
19030;SDS011;9648;51.130;13.978;2023-09-19T09:41:42;1.90;;;0.90;;
19030;SDS011;9648;51.130;13.978;2023-09-19T09:44:12;4.80;;;0.90;;
19030;SDS011;9648;51.130;13.978;2023-09-19T09:46:42;2.85;;;0.88;;
19030;SDS011;9648;51.130;13.978;2023-09-19T09:49:47;1.92;;;0.70;;
19030;SDS011;9648;51.130;13.978;2023-09-19T09:52:19;2.55;;;0.70;;
19030;SDS011;9648;51.130;13.978;2023-09-19T09:54:58;1.75;;;0.70;;
19030;SDS011;9648;51.130;13.978;2023-09-19T09:57:31;4.35;;;0.90;;
19030;SDS011;9648;51.130;13.978;2023-09-19T10:00:01;1.65;;;0.80;;
19030;SDS011;9648;51.130;13.978;2023-09-19T10:02:41;2.33;;;0.80;;
19030;SDS011;9648;51.130;13.978;2023-09-19T10:05:12;3.20;;;0.80;;
19030;SDS011;9648;51.130;13.978;2023-09-19T10:07:46;2.35;;;0.70;;
19030;SDS011;9648;51.130;13.978;2023-09-19T10:10:28;2.40;;;0.85;;
19030;SDS011;9648;51.130;13.978;2023-09-19T10:13:04;1.52;;;0.80;;
19030;SDS011;9648;51.130;13.978;2023-09-19T10:15:37;1.98;;;0.77;;
19030;SDS011;9648;51.130;13.978;2023-09-19T10:18:06;1.75;;;0.70;;
19030;SDS011;9648;51.130;13.978;2023-09-19T10:20:33;1.73;;;0.80;;
19030;SDS011;9648;51.130;13.978;2023-09-19T10:23:04;2.05;;;0.80;;
19030;SDS011;9648;51.130;13.978;2023-09-19T10:25:39;1.75;;;0.70;;
19030;SDS011;9648;51.130;13.978;2023-09-19T10:28:09;2.67;;;0.70;;
19030;SDS011;9648;51.130;13.978;2023-09-19T10:30:40;1.60;;;0.70;;
19030;SDS011;9648;51.130;13.978;2023-09-19T10:33:10;2.50;;;0.90;;
19030;SDS011;9648;51.130;13.978;2023-09-19T10:35:38;2.33;;;0.95;;
19030;SDS011;9648;51.130;13.978;2023-09-19T10:38:06;3.20;;;0.83;;
19030;SDS011;9648;51.130;13.978;2023-09-19T10:40:35;1.58;;;0.70;;
19030;SDS011;9648;51.130;13.978;2023-09-19T10:43:11;2.28;;;0.80;;
19030;SDS011;9648;51.130;13.978;2023-09-19T10:45:39;2.15;;;0.73;;
19030;SDS011;9648;51.130;13.978;2023-09-19T10:48:09;3.92;;;0.82;;
19030;SDS011;9648;51.130;13.978;2023-09-19T10:50:41;2.28;;;0.88;;
19030;SDS011;9648;51.130;13.978;2023-09-19T10:53:12;2.17;;;0.90;;
19030;SDS011;9648;51.130;13.978;2023-09-19T10:55:40;2.00;;;0.90;;
19030;SDS011;9648;51.130;13.978;2023-09-19T10:58:16;2.37;;;0.70;;
19030;SDS011;9648;51.130;13.978;2023-09-19T11:00:54;1.88;;;0.90;;
19030;SDS011;9648;51.130;13.978;2023-09-19T11:03:22;1.90;;;0.75;;
19030;SDS011;9648;51.130;13.978;2023-09-19T11:06:09;2.58;;;0.90;;
19030;SDS011;9648;51.130;13.978;2023-09-19T11:08:51;3.03;;;0.90;;
19030;SDS011;9648;51.130;13.978;2023-09-19T11:11:44;2.13;;;1.00;;
19030;SDS011;9648;51.130;13.978;2023-09-19T11:17:29;1.63;;;0.82;;
19030;SDS011;9648;51.130;13.978;2023-09-19T11:20:19;2.22;;;1.00;;
19030;SDS011;9648;51.130;13.978;2023-09-19T11:25:52;2.97;;;1.05;;
19030;SDS011;9648;51.130;13.978;2023-09-19T11:28:32;3.15;;;1.25;;
19030;SDS011;9648;51.130;13.978;2023-09-19T11:36:59;3.95;;;1.20;;
19030;SDS011;9648;51.130;13.978;2023-09-19T11:39:28;4.00;;;1.20;;
19030;SDS011;9648;51.130;13.978;2023-09-19T11:41:55;4.40;;;1.08;;
19030;SDS011;9648;51.130;13.978;2023-09-19T11:44:32;2.53;;;1.20;;
19030;SDS011;9648;51.130;13.978;2023-09-19T11:46:59;3.15;;;1.60;;
19030;SDS011;9648;51.130;13.978;2023-09-19T11:49:29;2.67;;;1.20;;
19030;SDS011;9648;51.130;13.978;2023-09-19T11:51:57;2.33;;;1.10;;
19030;SDS011;9648;51.130;13.978;2023-09-19T11:54:29;3.65;;;1.20;;
19030;SDS011;9648;51.130;13.978;2023-09-19T11:56:58;2.78;;;1.20;;
19030;SDS011;9648;51.130;13.978;2023-09-19T11:59:26;3.30;;;1.40;;
19030;SDS011;9648;51.130;13.978;2023-09-19T12:01:55;2.40;;;1.10;;
19030;SDS011;9648;51.130;13.978;2023-09-19T12:04:36;3.47;;;1.20;;
19030;SDS011;9648;51.130;13.978;2023-09-19T12:07:05;4.10;;;1.25;;
19030;SDS011;9648;51.130;13.978;2023-09-19T12:09:37;3.13;;;1.30;;
19030;SDS011;9648;51.130;13.978;2023-09-19T12:12:05;2.38;;;1.27;;
19030;SDS011;9648;51.130;13.978;2023-09-19T12:14:34;2.80;;;1.10;;
19030;SDS011;9648;51.130;13.978;2023-09-19T12:17:01;2.75;;;1.15;;
19030;SDS011;9648;51.130;13.978;2023-09-19T12:19:28;2.15;;;1.08;;
19030;SDS011;9648;51.130;13.978;2023-09-19T12:21:59;2.78;;;1.00;;
19030;SDS011;9648;51.130;13.978;2023-09-19T12:24:31;2.30;;;1.02;;
19030;SDS011;9648;51.130;13.978;2023-09-19T12:27:02;2.77;;;1.10;;
19030;SDS011;9648;51.130;13.978;2023-09-19T12:29:32;1.90;;;1.00;;
19030;SDS011;9648;51.130;13.978;2023-09-19T12:32:09;2.25;;;1.10;;
19030;SDS011;9648;51.130;13.978;2023-09-19T12:34:36;2.27;;;1.10;;
19030;SDS011;9648;51.130;13.978;2023-09-19T12:37:08;2.45;;;1.08;;
19030;SDS011;9648;51.130;13.978;2023-09-19T12:39:42;3.30;;;1.17;;
19030;SDS011;9648;51.130;13.978;2023-09-19T12:42:13;1.70;;;0.90;;
19030;SDS011;9648;51.130;13.978;2023-09-19T12:44:42;1.73;;;1.00;;
19030;SDS011;9648;51.130;13.978;2023-09-19T12:47:11;2.55;;;1.02;;
19030;SDS011;9648;51.130;13.978;2023-09-19T12:52:38;2.53;;;0.93;;
19030;SDS011;9648;51.130;13.978;2023-09-19T12:55:07;2.97;;;1.10;;
19030;SDS011;9648;51.130;13.978;2023-09-19T12:57:36;2.70;;;0.97;;
19030;SDS011;9648;51.130;13.978;2023-09-19T13:00:04;4.35;;;1.00;;
19030;SDS011;9648;51.130;13.978;2023-09-19T13:02:32;2.60;;;1.17;;
19030;SDS011;9648;51.130;13.978;2023-09-19T13:04:59;2.47;;;1.10;;
19030;SDS011;9648;51.130;13.978;2023-09-19T13:07:40;2.57;;;1.00;;
19030;SDS011;9648;51.130;13.978;2023-09-19T13:10:11;4.57;;;1.40;;
19030;SDS011;9648;51.130;13.978;2023-09-19T13:12:41;1.92;;;0.98;;
19030;SDS011;9648;51.130;13.978;2023-09-19T13:15:09;3.85;;;1.15;;
19030;SDS011;9648;51.130;13.978;2023-09-19T13:17:42;3.97;;;1.20;;
19030;SDS011;9648;51.130;13.978;2023-09-19T13:20:20;1.65;;;1.00;;
19030;SDS011;9648;51.130;13.978;2023-09-19T13:22:52;3.97;;;1.13;;
19030;SDS011;9648;51.130;13.978;2023-09-19T13:25:25;2.28;;;0.90;;
19030;SDS011;9648;51.130;13.978;2023-09-19T13:27:55;1.92;;;1.10;;
19030;SDS011;9648;51.130;13.978;2023-09-19T13:30:24;2.70;;;1.05;;
19030;SDS011;9648;51.130;13.978;2023-09-19T13:33:04;3.95;;;1.20;;
19030;SDS011;9648;51.130;13.978;2023-09-19T13:35:32;1.88;;;1.10;;
19030;SDS011;9648;51.130;13.978;2023-09-19T13:37:58;2.03;;;1.00;;
19030;SDS011;9648;51.130;13.978;2023-09-19T13:40:27;2.88;;;1.00;;
19030;SDS011;9648;51.130;13.978;2023-09-19T13:43:00;1.58;;;0.80;;
19030;SDS011;9648;51.130;13.978;2023-09-19T13:45:26;3.88;;;1.13;;
19030;SDS011;9648;51.130;13.978;2023-09-19T13:47:55;4.10;;;1.05;;
19030;SDS011;9648;51.130;13.978;2023-09-19T13:50:23;2.15;;;1.00;;
19030;SDS011;9648;51.130;13.978;2023-09-19T13:52:50;3.30;;;1.02;;
19030;SDS011;9648;51.130;13.978;2023-09-19T13:55:18;2.78;;;0.90;;
19030;SDS011;9648;51.130;13.978;2023-09-19T13:57:47;3.10;;;1.10;;
19030;SDS011;9648;51.130;13.978;2023-09-19T14:00:15;2.60;;;1.00;;
19030;SDS011;9648;51.130;13.978;2023-09-19T14:02:43;3.67;;;1.00;;
19030;SDS011;9648;51.130;13.978;2023-09-19T14:05:11;2.55;;;1.00;;
19030;SDS011;9648;51.130;13.978;2023-09-19T14:07:40;2.40;;;1.00;;
19030;SDS011;9648;51.130;13.978;2023-09-19T14:10:07;3.03;;;1.10;;
19030;SDS011;9648;51.130;13.978;2023-09-19T14:12:35;3.58;;;1.20;;
19030;SDS011;9648;51.130;13.978;2023-09-19T14:15:04;3.33;;;1.20;;
19030;SDS011;9648;51.130;13.978;2023-09-19T14:17:32;3.15;;;1.50;;
19030;SDS011;9648;51.130;13.978;2023-09-19T14:19:59;2.40;;;1.10;;
19030;SDS011;9648;51.130;13.978;2023-09-19T14:22:26;1.58;;;1.00;;
19030;SDS011;9648;51.130;13.978;2023-09-19T14:24:52;2.97;;;1.20;;
19030;SDS011;9648;51.130;13.978;2023-09-19T14:27:19;1.90;;;1.10;;
19030;SDS011;9648;51.130;13.978;2023-09-19T14:29:46;2.70;;;1.30;;
19030;SDS011;9648;51.130;13.978;2023-09-19T14:32:14;2.88;;;1.40;;
19030;SDS011;9648;51.130;13.978;2023-09-19T14:34:41;3.38;;;1.20;;
19030;SDS011;9648;51.130;13.978;2023-09-19T14:37:09;2.72;;;1.08;;
19030;SDS011;9648;51.130;13.978;2023-09-19T14:39:36;2.47;;;1.10;;
19030;SDS011;9648;51.130;13.978;2023-09-19T14:42:04;3.63;;;1.25;;
19030;SDS011;9648;51.130;13.978;2023-09-19T14:44:31;1.95;;;0.93;;
19030;SDS011;9648;51.130;13.978;2023-09-19T14:46:58;3.53;;;1.40;;
19030;SDS011;9648;51.130;13.978;2023-09-19T14:49:26;4.22;;;1.15;;
19030;SDS011;9648;51.130;13.978;2023-09-19T14:51:53;3.80;;;1.10;;
19030;SDS011;9648;51.130;13.978;2023-09-19T14:54:20;1.88;;;0.85;;
19030;SDS011;9648;51.130;13.978;2023-09-19T14:56:49;1.80;;;1.00;;
19030;SDS011;9648;51.130;13.978;2023-09-19T14:59:29;3.65;;;1.20;;
19030;SDS011;9648;51.130;13.978;2023-09-19T15:01:56;2.78;;;1.30;;
19030;SDS011;9648;51.130;13.978;2023-09-19T15:04:23;3.20;;;1.33;;
19030;SDS011;9648;51.130;13.978;2023-09-19T15:06:51;2.80;;;1.40;;
19030;SDS011;9648;51.130;13.978;2023-09-19T15:09:20;2.45;;;1.42;;
19030;SDS011;9648;51.130;13.978;2023-09-19T15:11:47;2.20;;;1.30;;
19030;SDS011;9648;51.130;13.978;2023-09-19T15:14:13;3.10;;;1.20;;
19030;SDS011;9648;51.130;13.978;2023-09-19T15:16:40;3.85;;;1.30;;
19030;SDS011;9648;51.130;13.978;2023-09-19T15:19:08;3.03;;;1.20;;